createdAt,value
2018-10-17T00:01:51.033Z,8.77
2018-10-17T00:03:55.943Z,9.43
2018-10-17T00:06:00.848Z,11.80
2018-10-17T00:08:06.316Z,10.10
2018-10-17T00:10:12.145Z,13.07
2018-10-17T00:12:17.229Z,15.30
2018-10-17T00:14:22.248Z,9.23
2018-10-17T00:16:27.066Z,9.50
2018-10-17T00:18:31.939Z,21.83
2018-10-17T00:20:36.952Z,11.23
2018-10-17T00:22:41.784Z,12.13
2018-10-17T00:24:46.685Z,8.70
2018-10-17T00:26:51.505Z,9.60
2018-10-17T00:28:56.423Z,9.40
2018-10-17T00:31:01.221Z,9.07
2018-10-17T00:33:06.024Z,9.37
2018-10-17T00:35:11.306Z,10.77
2018-10-17T00:37:16.224Z,11.93
2018-10-17T00:39:21.100Z,9.70
2018-10-17T00:41:27.006Z,8.17
2018-10-17T00:43:31.918Z,9.60
2018-10-17T00:45:36.953Z,8.60
2018-10-17T00:47:41.955Z,10.63
2018-10-17T00:49:46.924Z,7.17
2018-10-17T00:51:51.796Z,9.67
2018-10-17T00:53:56.667Z,8.43
2018-10-17T00:56:01.676Z,9.60
2018-10-17T00:58:06.937Z,9.43
2018-10-17T01:00:12.016Z,9.90
2018-10-17T01:02:16.976Z,9.20
2018-10-17T01:04:21.843Z,10.50
2018-10-17T01:06:26.717Z,6.73
2018-10-17T01:08:31.733Z,11.77
2018-10-17T01:10:36.509Z,9.20
2018-10-17T01:12:41.329Z,9.67
2018-10-17T01:14:46.274Z,7.77
2018-10-17T01:16:51.213Z,7.90
2018-10-17T01:18:56.187Z,7.57
2018-10-17T01:21:01.093Z,11.07
2018-10-17T01:23:06.227Z,8.30
2018-10-17T01:25:11.097Z,8.90
2018-10-17T01:27:15.965Z,9.17
2018-10-17T01:29:20.831Z,9.90
2018-10-17T01:31:27.480Z,8.13
2018-10-17T01:33:32.327Z,10.93
2018-10-17T01:35:37.405Z,7.27
2018-10-17T01:37:42.405Z,9.80
2018-10-17T01:39:47.327Z,8.67
2018-10-17T01:41:52.190Z,10.27
2018-10-17T01:43:57.466Z,8.93
2018-10-17T01:46:02.261Z,10.30
2018-10-17T01:48:07.592Z,10.03
2018-10-17T01:50:12.500Z,14.17
2018-10-17T01:52:17.255Z,8.13
2018-10-17T01:54:22.161Z,7.57
2018-10-17T01:56:27.513Z,9.03
2018-10-17T01:58:32.373Z,8.40
2018-10-17T02:00:37.589Z,13.67
2018-10-17T02:02:42.396Z,6.90
2018-10-17T02:04:47.176Z,8.40
2018-10-17T02:06:51.994Z,11.00
2018-10-17T02:08:56.871Z,10.53
2018-10-17T02:11:05.108Z,11.43
2018-10-17T02:13:10.062Z,10.13
2018-10-17T02:15:14.977Z,14.97
2018-10-17T02:17:20.079Z,6.80
2018-10-17T02:19:25.049Z,8.73
2018-10-17T02:21:29.928Z,9.27
2018-10-17T02:23:34.879Z,7.13
2018-10-17T02:25:39.874Z,9.80
2018-10-17T02:27:44.628Z,8.70
2018-10-17T02:29:49.507Z,8.90
2018-10-17T02:31:54.405Z,8.97
2018-10-17T02:33:59.259Z,8.70
2018-10-17T02:36:04.090Z,8.87
2018-10-17T02:38:09.004Z,7.20
2018-10-17T02:40:13.965Z,7.20
2018-10-17T02:42:18.885Z,7.10
2018-10-17T02:44:23.900Z,8.93
2018-10-17T02:46:28.817Z,12.13
2018-10-17T02:48:33.805Z,8.70
2018-10-17T02:50:38.874Z,7.60
2018-10-17T02:52:43.951Z,10.70
2018-10-17T02:54:48.932Z,9.03
2018-10-17T02:56:54.107Z,10.60
2018-10-17T02:58:59.101Z,10.97
2018-10-17T03:01:04.118Z,7.10
2018-10-17T03:03:08.966Z,9.17
2018-10-17T03:05:13.849Z,10.87
2018-10-17T03:07:18.848Z,9.47
2018-10-17T03:09:23.701Z,10.47
2018-10-17T03:11:28.429Z,10.70
2018-10-17T03:13:33.353Z,9.60
2018-10-17T03:15:38.147Z,7.77
2018-10-17T03:17:42.942Z,16.97
2018-10-17T03:19:47.925Z,11.53
2018-10-17T03:21:52.941Z,7.13
2018-10-17T03:23:57.762Z,10.77
2018-10-17T03:26:02.755Z,11.10
2018-10-17T03:28:07.712Z,11.53
2018-10-17T03:30:12.693Z,8.23
2018-10-17T03:32:17.725Z,12.27
2018-10-17T03:34:22.574Z,10.27
2018-10-17T03:36:27.791Z,10.53
2018-10-17T03:38:32.753Z,8.70
2018-10-17T03:40:37.781Z,10.90
2018-10-17T03:42:42.565Z,10.97
2018-10-17T03:44:47.649Z,7.63
2018-10-17T03:46:52.523Z,7.97
2018-10-17T03:48:57.347Z,12.70
2018-10-17T03:51:02.096Z,11.23
2018-10-17T03:53:06.921Z,8.43
2018-10-17T03:55:11.795Z,9.47
2018-10-17T03:57:16.543Z,9.70
2018-10-17T03:59:21.483Z,10.90
2018-10-17T04:01:26.029Z,11.77
2018-10-17T04:03:30.856Z,10.27
2018-10-17T04:05:35.619Z,8.43
2018-10-17T04:07:40.527Z,7.87
2018-10-17T04:09:46.169Z,7.57
2018-10-17T04:11:51.060Z,10.07
2018-10-17T04:13:56.101Z,8.90
2018-10-17T04:16:00.785Z,11.40
2018-10-17T04:18:05.751Z,8.97
2018-10-17T04:20:17.103Z,9.00
2018-10-17T04:22:21.938Z,8.10
2018-10-17T04:24:26.702Z,16.40
2018-10-17T04:26:31.552Z,11.03
2018-10-17T04:28:36.229Z,9.53
2018-10-17T04:30:41.096Z,10.27
2018-10-17T04:34:51.587Z,10.07
2018-10-17T04:36:56.288Z,7.73
2018-10-17T04:39:00.960Z,13.33
2018-10-17T04:41:07.749Z,9.63
2018-10-17T04:43:12.604Z,8.37
2018-10-17T04:45:17.426Z,9.53
2018-10-17T04:47:22.453Z,11.60
2018-10-17T04:49:27.211Z,8.10
2018-10-17T04:51:32.802Z,9.77
2018-10-17T04:53:37.842Z,8.93
2018-10-17T04:55:42.808Z,9.93
2018-10-17T04:57:47.979Z,13.70
2018-10-17T04:59:52.971Z,11.33
2018-10-17T05:01:57.835Z,15.70
2018-10-17T05:04:03.001Z,10.00
2018-10-17T05:06:07.949Z,10.43
2018-10-17T05:08:12.888Z,10.07
2018-10-17T05:10:17.947Z,13.60
2018-10-17T05:12:23.678Z,10.37
2018-10-17T05:14:28.498Z,10.23
2018-10-17T05:16:36.651Z,10.40
2018-10-17T05:18:41.714Z,8.97
2018-10-17T05:20:46.893Z,10.07
2018-10-17T05:22:51.860Z,8.47
2018-10-17T05:24:57.017Z,8.27
2018-10-17T05:27:02.014Z,8.43
2018-10-17T05:29:07.116Z,8.10
2018-10-17T05:31:12.191Z,10.70
2018-10-17T05:33:17.078Z,10.13
2018-10-17T05:35:22.044Z,13.17
2018-10-17T05:37:27.073Z,11.07
2018-10-17T05:39:32.045Z,16.57
2018-10-17T05:41:38.520Z,11.77
2018-10-17T05:43:43.924Z,9.87
2018-10-17T05:45:48.911Z,10.60
2018-10-17T05:47:53.962Z,9.07
2018-10-17T05:49:59.090Z,11.73
2018-10-17T05:52:04.191Z,11.47
2018-10-17T05:54:09.370Z,13.10
2018-10-17T05:56:14.460Z,11.20
2018-10-17T05:58:19.597Z,24.60
2018-10-17T06:00:24.613Z,11.77
2018-10-17T06:02:32.217Z,14.57
2018-10-17T06:04:37.398Z,17.13
2018-10-17T06:06:42.667Z,17.43
2018-10-17T06:08:47.829Z,9.90
2018-10-17T06:10:52.777Z,9.53
2018-10-17T06:12:57.786Z,12.50
2018-10-17T06:15:02.809Z,24.43
2018-10-17T06:17:07.849Z,17.40
2018-10-17T06:19:13.201Z,11.50
2018-10-17T06:21:18.804Z,11.13
2018-10-17T06:23:24.358Z,11.57
2018-10-17T06:25:30.094Z,13.53
2018-10-17T06:27:35.102Z,18.17
2018-10-17T06:29:39.965Z,18.37
2018-10-17T06:31:44.990Z,13.63
2018-10-17T06:33:54.078Z,22.57
2018-10-17T06:35:59.079Z,11.63
2018-10-17T06:38:03.971Z,11.80
2018-10-17T06:40:10.982Z,11.37
2018-10-17T06:42:16.513Z,8.83
2018-10-17T06:44:21.515Z,18.40
2018-10-17T06:46:26.487Z,12.60
2018-10-17T06:48:31.266Z,15.00
2018-10-17T06:50:36.338Z,15.60
2018-10-17T06:52:41.359Z,21.87
2018-10-17T06:54:47.320Z,12.20
2018-10-17T06:56:52.222Z,12.53
2018-10-17T06:58:58.188Z,13.67
2018-10-17T07:01:05.203Z,13.27
2018-10-17T07:03:10.882Z,19.43
2018-10-17T07:05:15.652Z,15.37
2018-10-17T07:07:20.763Z,14.30
2018-10-17T07:09:25.816Z,14.70
2018-10-17T07:11:31.078Z,15.80
2018-10-17T07:13:36.115Z,15.17
2018-10-17T07:15:41.117Z,14.60
2018-10-17T07:17:45.886Z,16.00
2018-10-17T07:19:50.614Z,13.37
2018-10-17T07:21:55.913Z,20.23
2018-10-17T07:24:00.845Z,18.27
2018-10-17T07:26:05.625Z,14.57
2018-10-17T07:28:10.658Z,16.17
2018-10-17T07:30:15.842Z,15.73
2018-10-17T07:32:21.842Z,15.27
2018-10-17T07:34:26.905Z,17.57
2018-10-17T07:36:31.826Z,14.27
2018-10-17T07:38:36.844Z,19.90
2018-10-17T07:40:41.982Z,17.87
2018-10-17T07:42:46.841Z,17.93
2018-10-17T07:44:51.462Z,21.67
2018-10-17T07:46:57.971Z,18.57
2018-10-17T07:49:03.052Z,19.30
2018-10-17T07:51:07.563Z,17.47
2018-10-17T07:53:12.487Z,16.67
2018-10-17T07:55:17.683Z,19.73
2018-10-17T07:57:22.345Z,16.53
2018-10-17T07:59:27.013Z,14.63
2018-10-17T08:01:32.334Z,19.67
2018-10-17T08:03:37.130Z,19.20
2018-10-17T08:05:41.959Z,23.10
2018-10-17T08:07:46.594Z,15.97
2018-10-17T08:09:51.405Z,20.13
2018-10-17T08:11:56.137Z,17.80
2018-10-17T08:14:00.893Z,15.73
2018-10-17T08:16:06.108Z,22.07
2018-10-17T08:18:10.983Z,22.70
2018-10-17T08:20:15.615Z,15.63
2018-10-17T08:22:20.663Z,16.97
2018-10-17T08:24:25.492Z,20.77
2018-10-17T08:26:31.465Z,26.00
2018-10-17T08:28:36.974Z,19.87
2018-10-17T08:30:41.599Z,15.93
2018-10-17T08:32:46.266Z,18.20
2018-10-17T08:34:50.927Z,19.07
2018-10-17T08:36:56.164Z,19.63
2018-10-17T08:39:00.602Z,17.10
2018-10-17T08:41:05.659Z,18.23
2018-10-17T08:43:10.272Z,19.03
2018-10-17T08:45:16.380Z,15.33
2018-10-17T08:47:21.271Z,14.93
2018-10-17T08:49:26.373Z,28.30
2018-10-17T08:51:31.508Z,24.33
2018-10-17T08:53:36.280Z,20.07
2018-10-17T08:55:42.410Z,18.77
2018-10-17T08:57:47.281Z,22.47
2018-10-17T08:59:52.310Z,18.67
2018-10-17T09:01:59.337Z,17.20
2018-10-17T09:04:04.094Z,18.50
2018-10-17T09:06:08.975Z,15.47
2018-10-17T09:08:13.811Z,16.93
2018-10-17T09:10:18.491Z,21.50
2018-10-17T09:12:23.365Z,27.00
2018-10-17T09:14:28.222Z,18.90
2018-10-17T09:16:33.049Z,17.50
2018-10-17T09:18:37.786Z,13.60
2018-10-17T09:20:42.898Z,19.10
2018-10-17T09:22:47.503Z,18.03
2018-10-17T09:24:52.364Z,23.33
2018-10-17T09:26:57.090Z,15.30
2018-10-17T09:29:01.989Z,15.40
2018-10-17T09:31:07.062Z,17.60
2018-10-17T09:33:12.038Z,13.43
2018-10-17T09:35:17.095Z,19.83
2018-10-17T09:37:21.818Z,19.60
2018-10-17T09:39:26.621Z,14.13
2018-10-17T09:41:31.658Z,15.50
2018-10-17T09:43:36.291Z,17.23
2018-10-17T09:45:41.163Z,16.23
2018-10-17T09:47:46.338Z,21.77
2018-10-17T09:49:51.247Z,16.27
2018-10-17T09:51:56.069Z,18.37
2018-10-17T09:54:00.774Z,21.60
2018-10-17T09:58:03.730Z,17.63
2018-10-17T10:00:14.426Z,42.87
2018-10-17T10:02:19.311Z,16.70
2018-10-17T10:04:24.291Z,22.37
2018-10-17T10:06:29.001Z,19.40
2018-10-17T10:08:33.904Z,25.20
2018-10-17T10:10:38.909Z,20.10
2018-10-17T10:12:43.816Z,18.67
2018-10-17T10:14:48.657Z,26.53
2018-10-17T10:16:53.397Z,19.00
2018-10-17T10:18:58.279Z,29.70
2018-10-17T10:21:02.950Z,21.57
2018-10-17T10:23:08.223Z,32.83
2018-10-17T10:25:13.394Z,25.50
2018-10-17T10:27:19.096Z,18.30
2018-10-17T10:29:23.953Z,21.27
2018-10-17T10:31:29.334Z,26.20
2018-10-17T10:33:34.128Z,16.73
2018-10-17T10:35:38.832Z,19.13
2018-10-17T10:37:43.482Z,22.60
2018-10-17T10:39:48.859Z,22.47
2018-10-17T10:41:53.759Z,22.57
2018-10-17T10:43:58.979Z,21.57
2018-10-17T10:46:03.856Z,18.30
2018-10-17T10:48:08.861Z,21.40
2018-10-17T10:50:14.273Z,20.60
2018-10-17T10:52:19.181Z,19.77
2018-10-17T10:54:29.310Z,18.53
2018-10-17T10:56:34.144Z,18.83
2018-10-17T10:58:38.870Z,17.60
2018-10-17T11:00:44.891Z,21.33
2018-10-17T11:02:49.802Z,18.97
2018-10-17T11:04:54.658Z,19.27
2018-10-17T11:06:59.261Z,19.77
2018-10-17T11:09:04.148Z,25.03
2018-10-17T11:11:08.920Z,19.10
2018-10-17T11:13:13.772Z,24.23
2018-10-17T11:15:18.429Z,23.70
2018-10-17T11:17:23.283Z,19.23
2018-10-17T11:19:28.167Z,22.40
2018-10-17T11:21:33.136Z,21.90
2018-10-17T11:23:38.252Z,25.03
2018-10-17T11:25:43.286Z,21.50
2018-10-17T11:27:48.051Z,21.30
2018-10-17T11:29:52.743Z,27.93
2018-10-17T11:31:57.457Z,17.27
2018-10-17T11:34:02.252Z,17.13
2018-10-17T11:36:07.083Z,23.40
2018-10-17T11:38:11.744Z,21.00
2018-10-17T11:40:16.558Z,21.70
2018-10-17T11:42:21.334Z,23.43
2018-10-17T11:44:26.156Z,22.67
2018-10-17T11:46:30.956Z,15.57
2018-10-17T11:48:35.639Z,21.50
2018-10-17T11:50:40.642Z,17.80
2018-10-17T11:52:45.402Z,18.23
2018-10-17T11:54:50.144Z,16.90
2018-10-17T11:56:54.879Z,17.87
2018-10-17T11:58:59.762Z,21.17
2018-10-17T12:01:04.635Z,18.10
2018-10-17T12:03:09.698Z,19.93
2018-10-17T12:05:15.960Z,21.00
2018-10-17T12:07:20.921Z,23.63
2018-10-17T12:09:25.585Z,19.43
2018-10-17T12:11:31.406Z,19.07
2018-10-17T12:13:36.321Z,20.37
2018-10-17T12:15:44.609Z,24.30
2018-10-17T12:17:49.397Z,17.50
2018-10-17T12:19:54.384Z,29.03
2018-10-17T12:21:59.182Z,18.53
2018-10-17T12:24:04.127Z,21.77
2018-10-17T12:26:09.052Z,24.83
2018-10-17T12:28:13.986Z,21.10
2018-10-17T12:30:18.888Z,18.90
2018-10-17T12:32:23.571Z,18.80
2018-10-17T12:34:28.387Z,26.77
2018-10-17T12:36:33.276Z,24.27
2018-10-17T12:38:38.144Z,31.97
2018-10-17T12:40:43.063Z,21.30
2018-10-17T12:42:47.996Z,15.70
2018-10-17T12:44:53.384Z,21.30
2018-10-17T12:46:58.226Z,34.30
2018-10-17T12:49:03.005Z,18.90
2018-10-17T12:51:07.954Z,23.53
2018-10-17T12:53:12.772Z,22.37
2018-10-17T12:55:17.632Z,27.20
2018-10-17T12:57:22.326Z,21.27
2018-10-17T12:59:28.152Z,22.97
2018-10-17T13:01:33.136Z,24.67
2018-10-17T13:03:38.983Z,31.37
2018-10-17T13:05:43.798Z,21.93
2018-10-17T13:07:49.194Z,32.40
2018-10-17T13:09:53.878Z,19.23
2018-10-17T13:11:58.676Z,26.87
2018-10-17T13:14:03.749Z,21.83
2018-10-17T13:16:08.710Z,25.77
2018-10-17T13:18:13.604Z,21.90
2018-10-17T13:20:18.324Z,21.50
2018-10-17T13:22:23.358Z,21.53
2018-10-17T13:24:28.134Z,35.03
2018-10-17T13:26:32.980Z,21.70
2018-10-17T13:28:37.806Z,33.13
2018-10-17T13:30:42.548Z,30.40
2018-10-17T13:32:47.766Z,21.93
2018-10-17T13:34:52.503Z,19.90
2018-10-17T13:36:57.433Z,34.07
2018-10-17T13:39:02.453Z,25.73
2018-10-17T13:41:07.301Z,37.30
2018-10-17T13:43:12.105Z,22.90
2018-10-17T13:45:16.740Z,25.83
2018-10-17T13:47:21.622Z,28.83
2018-10-17T13:49:26.233Z,23.00
2018-10-17T13:51:31.212Z,23.70
2018-10-17T13:53:36.137Z,25.17
2018-10-17T13:55:41.001Z,20.20
2018-10-17T13:57:45.919Z,22.83
2018-10-17T13:59:50.923Z,18.83
2018-10-17T14:01:55.597Z,27.20
2018-10-17T14:04:00.384Z,20.50
2018-10-17T14:06:05.540Z,20.37
2018-10-17T14:08:10.464Z,28.37
2018-10-17T14:10:15.266Z,19.50
2018-10-17T14:12:20.123Z,22.60
2018-10-17T14:14:24.884Z,20.73
2018-10-17T14:16:29.681Z,30.83
2018-10-17T14:18:34.477Z,21.27
2018-10-17T14:20:39.557Z,19.43
2018-10-17T14:22:44.372Z,23.70
2018-10-17T14:24:49.423Z,26.23
2018-10-17T14:26:54.262Z,18.97
2018-10-17T14:28:58.933Z,19.13
2018-10-17T14:31:04.192Z,24.10
2018-10-17T14:33:09.105Z,27.80
2018-10-17T14:35:13.964Z,20.87
2018-10-17T14:37:18.745Z,20.10
2018-10-17T14:39:23.843Z,21.50
2018-10-17T14:41:28.520Z,29.70
2018-10-17T14:43:33.472Z,24.10
2018-10-17T14:45:38.225Z,21.00
2018-10-17T14:47:43.063Z,18.57
2018-10-17T14:49:47.837Z,21.13
2018-10-17T14:51:52.590Z,19.20
2018-10-17T14:53:57.592Z,28.33
2018-10-17T14:56:02.564Z,20.57
2018-10-17T14:58:07.937Z,18.67
2018-10-17T15:00:15.424Z,16.70
2018-10-17T15:02:20.275Z,18.53
2018-10-17T15:04:25.059Z,18.90
2018-10-17T15:06:29.836Z,17.90
2018-10-17T15:08:34.707Z,14.03
2018-10-17T15:10:39.659Z,20.20
2018-10-17T15:12:44.401Z,19.07
2018-10-17T15:14:50.350Z,15.90
2018-10-17T15:16:55.288Z,24.63
2018-10-17T15:19:00.129Z,16.87
2018-10-17T15:21:05.395Z,18.70
2018-10-17T15:23:10.440Z,21.20
2018-10-17T15:25:15.550Z,15.83
2018-10-17T15:27:20.507Z,21.33
2018-10-17T15:29:25.433Z,23.37
2018-10-17T15:31:30.487Z,23.67
2018-10-17T15:33:35.410Z,23.97
2018-10-17T15:35:40.433Z,33.23
2018-10-17T15:37:45.498Z,19.53
2018-10-17T15:39:50.558Z,27.30
2018-10-17T15:41:55.586Z,22.30
2018-10-17T15:44:00.671Z,24.20
2018-10-17T15:46:05.702Z,24.00
2018-10-17T15:48:10.782Z,21.60
2018-10-17T15:50:15.970Z,24.40
2018-10-17T15:52:20.757Z,23.27
2018-10-17T15:54:25.544Z,24.13
2018-10-17T15:56:31.053Z,19.10
2018-10-17T15:58:36.404Z,26.07
2018-10-17T16:00:41.334Z,23.10
2018-10-17T16:02:46.412Z,32.00
2018-10-17T16:04:51.617Z,38.03
2018-10-17T16:06:56.752Z,25.03
2018-10-17T16:09:01.636Z,32.73
2018-10-17T16:11:06.783Z,35.40
2018-10-17T16:13:11.842Z,30.57
2018-10-17T16:15:16.637Z,37.47
2018-10-17T16:17:21.450Z,30.20
2018-10-17T16:19:26.521Z,31.13
2018-10-17T16:21:31.863Z,31.00
2018-10-17T16:23:36.809Z,40.40
2018-10-17T16:25:41.783Z,47.20
2018-10-17T16:27:46.757Z,35.20
2018-10-17T16:29:51.932Z,47.63
2018-10-17T16:31:57.415Z,37.10
2018-10-17T16:34:02.476Z,36.40
2018-10-17T16:36:07.749Z,38.63
2018-10-17T16:38:13.040Z,36.63
2018-10-17T16:40:18.687Z,38.83
2018-10-17T16:42:23.734Z,41.67
2018-10-17T16:44:28.811Z,43.40
2018-10-17T16:46:33.993Z,46.90
2018-10-17T16:48:39.359Z,39.83
2018-10-17T16:50:44.647Z,54.60
2018-10-17T16:52:50.081Z,65.93
2018-10-17T16:54:55.219Z,49.50
2018-10-17T16:57:00.586Z,58.60
2018-10-17T16:59:05.805Z,43.87
2018-10-17T17:01:10.641Z,43.60
2018-10-17T17:03:16.655Z,45.73
2018-10-17T17:05:21.460Z,44.53
2018-10-17T17:07:26.549Z,44.27
2018-10-17T17:09:32.566Z,45.47
2018-10-17T17:11:37.407Z,43.53
2018-10-17T17:13:42.154Z,45.43
2018-10-17T17:15:46.945Z,67.00
2018-10-17T17:17:51.822Z,51.40
2018-10-17T17:19:56.546Z,46.20
2018-10-17T17:22:01.282Z,44.67
2018-10-17T17:24:06.427Z,46.10
2018-10-17T17:26:11.286Z,48.77
2018-10-17T17:28:16.192Z,48.83
2018-10-17T17:30:21.136Z,52.30
2018-10-17T17:32:26.074Z,53.20
2018-10-17T17:34:31.098Z,57.27
2018-10-17T17:36:35.849Z,53.93
2018-10-17T17:38:40.758Z,56.07
2018-10-17T17:40:49.796Z,61.13
2018-10-17T17:42:54.675Z,59.90
2018-10-17T17:44:59.547Z,60.17
2018-10-17T17:47:05.991Z,61.10
2018-10-17T17:49:10.918Z,56.43
2018-10-17T17:51:15.758Z,55.93
2018-10-17T17:53:20.490Z,58.93
2018-10-17T17:55:25.672Z,61.23
2018-10-17T17:57:30.751Z,51.57
2018-10-17T17:59:35.965Z,49.57
2018-10-17T18:01:40.966Z,46.37
2018-10-17T18:03:46.928Z,48.67
2018-10-17T18:05:51.875Z,55.77
2018-10-17T18:07:56.666Z,47.97
2018-10-17T18:10:01.487Z,52.30
2018-10-17T18:12:06.648Z,50.53
2018-10-17T18:14:12.413Z,45.50
2018-10-17T18:16:17.240Z,53.57
2018-10-17T18:18:22.459Z,47.07
2018-10-17T18:20:28.745Z,53.47
2018-10-17T18:22:34.668Z,50.17
2018-10-17T18:24:39.805Z,46.97
2018-10-17T18:26:46.287Z,49.57
2018-10-17T18:28:51.302Z,50.23
2018-10-17T18:30:56.427Z,49.33
2018-10-17T18:33:01.770Z,50.47
2018-10-17T18:35:07.737Z,44.77
2018-10-17T18:37:12.444Z,42.27
2018-10-17T18:39:17.603Z,48.43
2018-10-17T18:41:22.940Z,49.33
2018-10-17T18:43:29.436Z,47.00
2018-10-17T18:45:35.407Z,49.27
2018-10-17T18:47:41.400Z,43.33
2018-10-17T18:49:46.959Z,42.67
2018-10-17T18:51:51.858Z,46.87
2018-10-17T18:53:56.817Z,46.00
2018-10-17T18:56:01.939Z,42.83
2018-10-17T18:58:06.872Z,45.37
2018-10-17T19:00:13.223Z,47.00
2018-10-17T19:02:18.135Z,47.33
2018-10-17T19:04:23.204Z,50.50
2018-10-17T19:06:29.090Z,44.70
2018-10-17T19:08:35.037Z,47.70
2018-10-17T19:10:43.744Z,46.60
2018-10-17T19:12:48.877Z,49.00
2018-10-17T19:14:55.176Z,58.57
2018-10-17T19:17:00.318Z,60.57
2018-10-17T19:19:05.196Z,46.47
2018-10-17T19:21:13.465Z,53.73
2018-10-17T19:23:18.722Z,52.77
2018-10-17T19:25:25.368Z,49.77
2018-10-17T19:27:30.747Z,45.00
2018-10-17T19:29:40.285Z,47.10
2018-10-17T19:31:49.285Z,55.63
2018-10-17T19:33:57.893Z,49.27
2018-10-17T19:36:04.887Z,42.60
2018-10-17T19:38:10.159Z,48.30
2018-10-17T19:40:15.869Z,57.50
2018-10-17T19:42:22.583Z,57.37
2018-10-17T19:44:28.390Z,49.97
2018-10-17T19:46:35.934Z,44.77
2018-10-17T19:48:41.043Z,48.67
2018-10-17T19:50:46.260Z,51.90
2018-10-17T19:52:54.631Z,49.90
2018-10-17T19:55:01.596Z,63.63
2018-10-17T19:57:12.025Z,52.40
2018-10-17T19:59:17.797Z,45.23
2018-10-17T20:01:23.520Z,46.43
2018-10-17T20:03:29.499Z,50.63
2018-10-17T20:05:35.331Z,53.57
2018-10-17T20:07:40.764Z,56.90
2018-10-17T20:09:47.106Z,51.03
2018-10-17T20:11:52.469Z,59.43
2018-10-17T20:13:57.409Z,52.87
2018-10-17T20:16:03.371Z,48.53
2018-10-17T20:18:08.364Z,59.87
2018-10-17T20:20:13.741Z,54.33
2018-10-17T20:22:19.461Z,50.13
2018-10-17T20:24:24.264Z,59.33
2018-10-17T20:26:29.498Z,58.03
2018-10-17T20:28:34.962Z,55.50
2018-10-17T20:30:40.092Z,68.13
2018-10-17T20:32:45.151Z,55.83
2018-10-17T20:34:50.620Z,57.77
2018-10-17T20:36:56.038Z,56.73
2018-10-17T20:39:01.068Z,55.40
2018-10-17T20:41:06.147Z,59.77
2018-10-17T20:43:12.143Z,55.77
2018-10-17T20:45:17.337Z,77.53
2018-10-17T20:47:22.388Z,70.93
2018-10-17T20:49:27.565Z,58.40
2018-10-17T20:51:33.202Z,59.97
2018-10-17T20:53:38.400Z,57.50
2018-10-17T20:55:43.196Z,56.27
2018-10-17T20:57:48.066Z,56.83
2018-10-17T20:59:53.458Z,60.00
2018-10-17T21:01:58.535Z,53.43
2018-10-17T21:04:03.419Z,52.83
2018-10-17T21:06:08.352Z,51.70
2018-10-17T21:08:13.223Z,56.93
2018-10-17T21:10:18.115Z,62.77
2018-10-17T21:12:23.650Z,55.27
2018-10-17T21:14:28.902Z,59.47
2018-10-17T21:16:34.059Z,54.73
2018-10-17T21:18:39.037Z,62.57
2018-10-17T21:20:44.003Z,66.10
2018-10-17T21:22:48.941Z,64.30
2018-10-17T21:24:53.824Z,57.13
2018-10-17T21:26:58.765Z,69.07
2018-10-17T21:29:03.887Z,66.47
2018-10-17T21:31:08.660Z,62.33
2018-10-17T21:33:13.623Z,69.50
2018-10-17T21:35:18.419Z,62.20
2018-10-17T21:37:23.217Z,59.60
2018-10-17T21:39:28.006Z,53.00
2018-10-17T21:41:32.851Z,60.67
2018-10-17T21:43:37.759Z,50.37
2018-10-17T21:45:42.588Z,54.80
2018-10-17T21:47:47.414Z,68.93
2018-10-17T21:49:52.266Z,60.97
2018-10-17T21:51:57.041Z,63.10
2018-10-17T21:54:01.899Z,58.33
2018-10-17T21:56:06.952Z,62.83
2018-10-17T21:58:11.811Z,54.97
2018-10-17T22:00:16.775Z,56.07
2018-10-17T22:02:21.696Z,52.20
2018-10-17T22:04:26.492Z,54.80
2018-10-17T22:06:34.438Z,55.60
2018-10-17T22:08:41.333Z,55.27
2018-10-17T22:10:46.106Z,60.40
2018-10-17T22:12:52.200Z,53.20
2018-10-17T22:14:57.708Z,60.57
2018-10-17T22:17:07.033Z,60.20
2018-10-17T22:19:13.882Z,56.97
2018-10-17T22:21:21.772Z,55.73
2018-10-17T22:23:28.280Z,53.97
2018-10-17T22:25:34.223Z,56.97
2018-10-17T22:27:40.086Z,58.27
2018-10-17T22:29:44.824Z,50.10
2018-10-17T22:31:49.589Z,61.57
2018-10-17T22:33:55.315Z,60.10
2018-10-17T22:36:00.138Z,61.00
2018-10-17T22:38:13.322Z,60.33
2018-10-17T22:40:18.181Z,54.57
2018-10-17T22:42:22.945Z,63.07
2018-10-17T22:44:27.927Z,67.40
2018-10-17T22:46:32.633Z,55.77
2018-10-17T22:48:37.365Z,57.10
2018-10-17T22:50:42.102Z,59.57
2018-10-17T22:52:47.062Z,63.50
2018-10-17T22:54:52.903Z,59.93
2018-10-17T22:56:57.702Z,69.50
2018-10-17T22:59:02.468Z,64.40
2018-10-17T23:01:07.864Z,58.73
2018-10-17T23:03:12.646Z,59.00
2018-10-17T23:05:17.368Z,66.43
2018-10-17T23:07:22.393Z,56.93
2018-10-17T23:09:27.129Z,59.77
2018-10-17T23:11:31.813Z,62.90
2018-10-17T23:13:36.635Z,65.43
2018-10-17T23:15:41.493Z,59.30
2018-10-17T23:17:46.329Z,67.53
2018-10-17T23:19:51.230Z,62.40
2018-10-17T23:21:56.523Z,57.87
2018-10-17T23:24:01.436Z,62.37
2018-10-17T23:26:06.890Z,52.23
2018-10-17T23:28:11.637Z,56.23
2018-10-17T23:30:16.477Z,55.10
2018-10-17T23:32:21.179Z,61.17
2018-10-17T23:34:25.938Z,48.10
2018-10-17T23:36:30.780Z,55.07
2018-10-17T23:38:35.532Z,55.30
2018-10-17T23:40:40.278Z,48.57
2018-10-17T23:42:45.080Z,51.73
2018-10-17T23:44:49.911Z,48.70
2018-10-17T23:46:54.728Z,46.40
2018-10-17T23:48:59.453Z,48.03
2018-10-17T23:51:04.287Z,44.80
2018-10-17T23:53:09.382Z,49.77
2018-10-17T23:55:14.082Z,47.93
2018-10-17T23:57:18.947Z,46.57
2018-10-17T23:59:23.709Z,53.73
